< < Back
Terminal Aerodrome Forecast


Current Version              Previous Versions:   1  2  3  4  5  6  7  8  9  

Terminal Aerodrome Forecast

932
FTUS42 KFFC 211700
TAFMCN
TAF
KMCN 211720Z 2118/2218 33008G15KT P6SM SKC
     FM220000 31003KT P6SM SKC
     FM221500 01006KT P6SM SKC=



Latest METAR

064
SAUS80 KWBC 221200 RRC
MTRMCN
METAR KMCN 221153Z 27003KT 7SM CLR 07/07 A3007 RMK AO2 SLP181 T00670067
10100 20067 53018


USA.gov is the U.S. government's official web portal to all federal, state and local government web resources and services.